createdAt,value
2022-09-07T00:00:37.137Z,4.03
2022-09-07T00:03:04.439Z,3.87
2022-09-07T00:05:31.456Z,3.20
2022-09-07T00:07:58.308Z,3.10
2022-09-07T00:10:25.147Z,3.87
2022-09-07T00:12:51.955Z,3.65
2022-09-07T00:15:21.043Z,2.97
2022-09-07T00:17:47.649Z,2.90
2022-09-07T00:20:15.093Z,6.43
2022-09-07T00:22:41.823Z,4.03
2022-09-07T00:25:08.751Z,3.35
2022-09-07T00:27:35.379Z,3.10
2022-09-07T00:30:02.049Z,2.97
2022-09-07T00:32:31.570Z,3.25
2022-09-07T00:34:58.193Z,3.33
2022-09-07T00:37:24.851Z,3.67
2022-09-07T00:39:51.988Z,3.50
2022-09-07T00:42:20.599Z,3.30
2022-09-07T00:45:02.571Z,3.40
2022-09-07T00:47:36.969Z,3.17
2022-09-07T00:50:08.408Z,2.53
2022-09-07T00:52:35.074Z,3.87
2022-09-07T00:55:04.057Z,3.47
2022-09-07T00:57:31.424Z,3.12
2022-09-07T00:59:58.093Z,3.53
2022-09-07T01:02:25.343Z,3.05
2022-09-07T01:04:54.659Z,2.85
2022-09-07T01:07:21.230Z,3.58
2022-09-07T01:09:47.852Z,2.97
2022-09-07T01:12:14.694Z,3.30
2022-09-07T01:14:45.901Z,4.40
2022-09-07T01:17:35.224Z,5.20
2022-09-07T01:20:17.192Z,3.65
2022-09-07T01:23:08.065Z,4.95
2022-09-07T01:26:11.676Z,2.95
2022-09-07T01:28:38.869Z,3.47
2022-09-07T01:31:11.575Z,4.55
2022-09-07T01:34:00.929Z,3.28
2022-09-07T01:36:46.057Z,3.03
2022-09-07T01:39:12.627Z,3.22
2022-09-07T01:41:44.408Z,2.90
2022-09-07T01:44:12.247Z,3.22
2022-09-07T01:47:16.556Z,3.00
2022-09-07T01:49:47.526Z,4.18
2022-09-07T01:52:17.145Z,3.42
2022-09-07T01:54:48.597Z,3.80
2022-09-07T01:57:18.111Z,3.37
2022-09-07T01:59:46.958Z,2.83
2022-09-07T02:02:19.086Z,3.17
2022-09-07T02:04:45.540Z,3.62
2022-09-07T02:07:15.149Z,3.80
2022-09-07T02:09:47.735Z,3.28
2022-09-07T02:12:22.917Z,3.08
2022-09-07T02:14:52.921Z,3.30
2022-09-07T02:17:23.294Z,4.07
2022-09-07T02:19:52.526Z,2.75
2022-09-07T02:22:22.670Z,3.53
2022-09-07T02:24:51.141Z,4.18
2022-09-07T02:27:19.655Z,3.65
2022-09-07T02:29:46.230Z,3.78
2022-09-07T02:32:12.795Z,2.80
2022-09-07T02:34:39.439Z,3.37
2022-09-07T02:37:06.188Z,3.97
2022-09-07T02:39:33.682Z,3.15
2022-09-07T02:42:00.349Z,5.07
2022-09-07T02:44:29.254Z,3.65
2022-09-07T02:47:13.977Z,2.80
2022-09-07T02:49:57.227Z,2.78
2022-09-07T02:52:50.671Z,3.83
2022-09-07T02:56:06.377Z,3.85
2022-09-07T02:58:47.246Z,3.53
2022-09-07T03:01:35.461Z,4.07
2022-09-07T03:04:07.801Z,3.22
2022-09-07T03:06:38.283Z,3.28
2022-09-07T03:09:07.792Z,3.53
2022-09-07T03:11:36.774Z,3.37
2022-09-07T03:14:13.341Z,4.47
2022-09-07T03:16:39.933Z,3.22
2022-09-07T03:19:06.543Z,3.35
2022-09-07T03:21:33.126Z,3.87
2022-09-07T03:23:59.688Z,4.80
2022-09-07T03:26:26.264Z,3.60
2022-09-07T03:28:52.943Z,3.15
2022-09-07T03:31:20.153Z,3.05
2022-09-07T03:33:46.886Z,3.90
2022-09-07T03:36:13.482Z,3.10
2022-09-07T03:38:40.072Z,3.72
2022-09-07T03:41:06.882Z,3.35
2022-09-07T03:43:33.540Z,4.18
2022-09-07T03:46:01.691Z,4.00
2022-09-07T03:48:31.105Z,4.80
2022-09-07T03:51:02.100Z,3.83
2022-09-07T03:53:33.940Z,4.95
2022-09-07T03:56:04.814Z,3.03
2022-09-07T03:58:32.467Z,6.12
2022-09-07T04:00:59.736Z,3.72
2022-09-07T04:03:26.597Z,3.17
2022-09-07T04:05:53.199Z,3.65
2022-09-07T04:08:19.792Z,2.92
2022-09-07T04:10:46.379Z,3.87
2022-09-07T04:13:12.934Z,5.12
2022-09-07T04:15:39.519Z,3.83
2022-09-07T04:18:06.108Z,3.62
2022-09-07T04:20:32.719Z,3.60
2022-09-07T04:22:59.297Z,4.18
2022-09-07T04:25:25.858Z,4.53
2022-09-07T04:27:52.593Z,3.65
2022-09-07T04:30:19.155Z,3.10
2022-09-07T04:32:46.596Z,4.10
2022-09-07T04:35:13.532Z,3.65
2022-09-07T04:37:40.110Z,3.60
2022-09-07T04:40:07.103Z,5.25
2022-09-07T04:42:33.758Z,4.07
2022-09-07T04:45:00.376Z,3.45
2022-09-07T04:47:27.004Z,3.95
2022-09-07T04:49:53.626Z,4.72
2022-09-07T04:52:20.264Z,4.00
2022-09-07T04:54:50.153Z,4.37
2022-09-07T04:57:18.359Z,3.67
2022-09-07T04:59:44.954Z,4.40
2022-09-07T05:02:11.983Z,3.45
2022-09-07T05:04:38.591Z,5.30
2022-09-07T05:07:05.243Z,3.25
2022-09-07T05:09:31.817Z,3.90
2022-09-07T05:11:58.433Z,4.20
2022-09-07T05:14:25.010Z,3.92
2022-09-07T05:16:51.623Z,3.15
2022-09-07T05:19:18.267Z,4.50
2022-09-07T05:21:44.833Z,3.72
2022-09-07T05:24:11.472Z,3.25
2022-09-07T05:26:40.238Z,5.03
2022-09-07T05:31:54.764Z,4.20
2022-09-07T05:36:55.407Z,3.70
2022-09-07T05:39:21.997Z,5.40
2022-09-07T05:41:48.640Z,5.80
2022-09-07T05:47:01.780Z,3.45
2022-09-07T05:49:28.484Z,3.33
2022-09-07T05:51:55.078Z,3.83
2022-09-07T05:54:21.682Z,3.53
2022-09-07T05:56:48.357Z,3.85
2022-09-07T05:59:14.954Z,3.97
2022-09-07T06:01:41.580Z,5.75
2022-09-07T06:04:08.396Z,4.10
2022-09-07T06:06:38.380Z,3.53
2022-09-07T06:09:04.976Z,3.37
2022-09-07T06:11:31.574Z,4.15
2022-09-07T06:13:58.144Z,4.60
2022-09-07T06:16:27.156Z,3.35
2022-09-07T06:18:53.880Z,3.70
2022-09-07T06:21:21.760Z,3.97
2022-09-07T06:23:48.855Z,3.25
2022-09-07T06:26:16.468Z,3.55
2022-09-07T06:28:46.763Z,7.90
2022-09-07T06:31:17.497Z,4.03
2022-09-07T06:33:50.561Z,3.65
2022-09-07T06:36:24.554Z,4.18
2022-09-07T06:38:51.393Z,3.62
2022-09-07T06:44:06.056Z,4.12
2022-09-07T06:49:19.463Z,5.60
2022-09-07T06:51:46.063Z,6.18
2022-09-07T06:56:59.216Z,5.62
2022-09-07T06:59:25.803Z,4.93
2022-09-07T07:01:52.372Z,7.35
2022-09-07T07:04:18.992Z,8.23
2022-09-07T07:06:45.995Z,6.75
2022-09-07T07:09:13.500Z,7.70
2022-09-07T07:11:40.154Z,4.00
2022-09-07T07:14:06.752Z,6.03
2022-09-07T07:16:33.421Z,4.87
2022-09-07T07:19:00.126Z,9.77
2022-09-07T07:21:28.928Z,6.53
2022-09-07T07:24:05.001Z,7.10
2022-09-07T07:26:34.681Z,4.37
2022-09-07T07:29:02.822Z,4.37
2022-09-07T07:31:32.598Z,6.45
2022-09-07T07:33:59.208Z,6.57
2022-09-07T07:36:26.738Z,6.60
2022-09-07T07:44:14.036Z,4.62
2022-09-07T07:46:40.715Z,4.78
2022-09-07T07:49:07.414Z,4.15
2022-09-07T07:52:49.842Z,3.70
2022-09-07T07:54:20.519Z,6.70
2022-09-07T07:56:47.088Z,3.78
2022-09-07T07:59:15.766Z,5.68
2022-09-07T08:01:43.859Z,5.57
2022-09-07T08:04:10.382Z,4.78
2022-09-07T08:06:37.786Z,7.00
2022-09-07T08:09:04.338Z,3.87
2022-09-07T08:11:31.647Z,6.95
2022-09-07T08:14:00.309Z,5.00
2022-09-07T08:16:27.044Z,6.03
2022-09-07T08:18:53.814Z,5.43
2022-09-07T08:21:20.390Z,5.20
2022-09-07T08:23:46.934Z,6.30
2022-09-07T08:26:13.467Z,3.78
2022-09-07T08:28:41.097Z,6.72
2022-09-07T08:31:09.055Z,3.97
2022-09-07T08:33:37.682Z,5.15
2022-09-07T08:36:07.721Z,5.18
2022-09-07T08:38:35.005Z,4.07
2022-09-07T08:41:01.963Z,5.35
2022-09-07T08:43:47.063Z,5.05
2022-09-07T08:46:44.440Z,4.20
2022-09-07T08:49:17.687Z,3.60
2022-09-07T08:51:53.399Z,6.57
2022-09-07T08:54:19.950Z,4.95
2022-09-07T08:59:41.269Z,4.65
2022-09-07T09:02:32.568Z,4.72
2022-09-07T09:05:17.470Z,4.70
2022-09-07T09:08:06.506Z,5.87
2022-09-07T09:10:38.893Z,4.25
2022-09-07T09:13:15.018Z,4.57
2022-09-07T09:15:58.695Z,3.72
2022-09-07T09:18:28.372Z,10.15
2022-09-07T09:20:55.805Z,5.10
2022-09-07T09:23:27.160Z,5.72
2022-09-07T09:25:54.330Z,5.90
2022-09-07T09:28:20.947Z,5.28
2022-09-07T09:30:50.479Z,5.22
2022-09-07T09:33:18.345Z,5.70
2022-09-07T09:35:46.659Z,5.45
2022-09-07T09:38:34.709Z,6.82
2022-09-07T09:41:11.942Z,5.90
2022-09-07T09:43:54.942Z,5.22
2022-09-07T09:46:29.195Z,5.22
2022-09-07T09:49:05.382Z,5.72
2022-09-07T09:54:39.695Z,7.60
2022-09-07T09:57:06.280Z,7.35
2022-09-07T10:05:36.872Z,4.30
2022-09-07T10:08:19.608Z,4.93
2022-09-07T10:10:54.098Z,5.55
2022-09-07T10:13:28.544Z,6.30
2022-09-07T10:15:56.406Z,5.40
2022-09-07T10:18:28.150Z,7.22
2022-09-07T10:20:55.184Z,4.75
2022-09-07T10:23:23.307Z,6.50
2022-09-07T10:25:49.910Z,4.32
2022-09-07T10:28:23.971Z,4.80
2022-09-07T10:31:08.969Z,5.25
2022-09-07T10:37:06.020Z,6.68
2022-09-07T10:39:42.997Z,6.85
2022-09-07T10:42:09.575Z,5.12
2022-09-07T10:45:01.199Z,6.87
2022-09-07T10:47:30.655Z,4.18
2022-09-07T10:50:22.756Z,4.70
2022-09-07T10:52:52.302Z,5.43
2022-09-07T10:55:35.833Z,6.82
2022-09-07T10:58:14.126Z,7.28
2022-09-07T11:01:06.846Z,5.15
2022-09-07T11:03:57.598Z,5.85
2022-09-07T11:06:46.124Z,6.35
2022-09-07T11:09:24.695Z,5.35
2022-09-07T11:12:04.199Z,6.15
2022-09-07T11:14:42.060Z,6.85
2022-09-07T11:17:14.380Z,5.62
2022-09-07T11:19:45.371Z,6.32
2022-09-07T11:22:34.736Z,4.87
2022-09-07T11:27:57.803Z,7.95
2022-09-07T11:30:28.297Z,6.05
2022-09-07T11:32:58.101Z,6.37
2022-09-07T11:35:28.845Z,7.20
2022-09-07T11:37:59.494Z,5.68
2022-09-07T11:40:32.031Z,6.78
2022-09-07T11:43:02.848Z,6.68
2022-09-07T11:45:41.451Z,5.25
2022-09-07T11:48:11.803Z,6.07
2022-09-07T11:50:39.382Z,5.85
2022-09-07T11:53:20.500Z,6.53
2022-09-07T11:55:49.685Z,6.15
2022-09-07T11:58:20.857Z,6.97
2022-09-07T12:01:09.200Z,6.43
2022-09-07T12:03:47.883Z,7.35
2022-09-07T12:06:35.561Z,8.15
2022-09-07T12:09:27.000Z,8.13
2022-09-07T12:12:12.912Z,11.38
2022-09-07T12:15:12.347Z,8.98
2022-09-07T12:17:51.135Z,8.60
2022-09-07T12:20:19.037Z,8.60
2022-09-07T12:23:05.688Z,9.77
2022-09-07T12:25:33.496Z,11.23
2022-09-07T12:28:00.475Z,10.40
2022-09-07T12:30:27.097Z,10.48
2022-09-07T12:32:58.206Z,11.55
2022-09-07T12:35:33.941Z,12.50
2022-09-07T12:38:01.386Z,12.35
2022-09-07T12:40:28.054Z,13.38
2022-09-07T12:43:13.055Z,13.25
2022-09-07T12:45:39.508Z,13.88
2022-09-07T12:48:14.981Z,14.00
2022-09-07T12:50:55.873Z,13.85
2022-09-07T12:53:28.819Z,14.43
2022-09-07T12:56:43.178Z,13.93
2022-09-07T12:59:48.512Z,13.40
2022-09-07T13:02:35.239Z,13.25
2022-09-07T13:05:26.018Z,14.43
2022-09-07T13:08:13.947Z,13.95
2022-09-07T13:10:43.974Z,14.02
2022-09-07T13:16:14.260Z,13.30
2022-09-07T13:18:46.364Z,14.45
2022-09-07T13:21:14.649Z,14.02
2022-09-07T13:23:49.382Z,13.65
2022-09-07T13:26:53.785Z,13.48
2022-09-07T13:29:37.486Z,13.62
2022-09-07T13:32:10.938Z,14.60
2022-09-07T13:34:43.694Z,14.27
2022-09-07T13:37:23.776Z,13.57
2022-09-07T13:39:52.622Z,13.05
2022-09-07T13:42:24.350Z,13.88
2022-09-07T13:44:58.620Z,13.15
2022-09-07T13:47:43.877Z,12.80
2022-09-07T13:50:12.410Z,13.80
2022-09-07T13:52:47.892Z,13.80
2022-09-07T13:55:25.951Z,13.45
2022-09-07T13:58:23.495Z,13.88
2022-09-07T14:00:59.162Z,13.20
2022-09-07T14:06:14.678Z,13.05
2022-09-07T14:08:42.230Z,13.07
2022-09-07T14:11:20.398Z,13.52
2022-09-07T14:13:46.955Z,12.88
2022-09-07T14:16:13.523Z,12.40
2022-09-07T14:18:40.318Z,13.00
2022-09-07T14:21:09.545Z,12.57
2022-09-07T14:23:38.874Z,12.27
2022-09-07T14:26:19.461Z,11.02
2022-09-07T14:28:47.287Z,12.13
2022-09-07T14:31:18.696Z,11.07
2022-09-07T14:33:50.955Z,10.88
2022-09-07T14:36:41.676Z,12.68
2022-09-07T14:39:05.898Z,12.45
2022-09-07T14:41:34.667Z,11.65
2022-09-07T14:44:01.369Z,11.38
2022-09-07T14:46:33.350Z,13.52
2022-09-07T14:49:13.642Z,11.05
2022-09-07T14:51:43.319Z,11.40
2022-09-07T14:54:20.899Z,11.70
2022-09-07T14:57:11.921Z,10.90
2022-09-07T14:59:42.418Z,10.38
2022-09-07T15:02:18.112Z,11.48
2022-09-07T15:04:45.444Z,11.05
2022-09-07T15:07:28.295Z,10.95
2022-09-07T15:09:55.021Z,10.50
2022-09-07T15:12:38.259Z,10.50
2022-09-07T15:15:18.204Z,10.60
2022-09-07T15:17:45.150Z,11.18
2022-09-07T15:20:31.636Z,11.18
2022-09-07T15:22:58.713Z,10.18
2022-09-07T15:25:25.276Z,11.30
2022-09-07T15:27:51.837Z,10.60
2022-09-07T15:30:18.416Z,10.52
2022-09-07T15:32:45.026Z,10.75
2022-09-07T15:35:11.590Z,10.25
2022-09-07T15:40:25.021Z,10.15
2022-09-07T15:43:19.979Z,10.75
2022-09-07T15:45:39.644Z,9.70
2022-09-07T15:48:06.406Z,11.38
2022-09-07T15:50:32.961Z,9.77
2022-09-07T15:53:00.973Z,10.00
2022-09-07T15:55:27.785Z,10.55
2022-09-07T15:58:05.598Z,9.85
2022-09-07T16:00:35.527Z,10.10
2022-09-07T16:03:06.276Z,9.63
2022-09-07T16:05:33.697Z,10.15
2022-09-07T16:10:53.534Z,9.55
2022-09-07T16:13:20.472Z,10.02
2022-09-07T16:15:47.458Z,11.40
2022-09-07T16:18:16.582Z,10.48
2022-09-07T16:20:43.453Z,10.25
2022-09-07T16:23:14.646Z,10.43
2022-09-07T16:25:42.338Z,9.68
2022-09-07T16:28:09.316Z,9.80
2022-09-07T16:30:39.137Z,9.38
2022-09-07T16:33:05.764Z,9.30
2022-09-07T16:35:32.979Z,9.95
2022-09-07T16:40:46.773Z,9.52
2022-09-07T16:43:13.324Z,9.85
2022-09-07T16:48:26.648Z,9.98
2022-09-07T16:51:00.429Z,10.75
2022-09-07T16:53:28.926Z,10.57
2022-09-07T16:56:12.701Z,9.75
2022-09-07T16:58:40.571Z,10.32
2022-09-07T17:01:07.778Z,10.25
2022-09-07T17:03:35.714Z,10.82
2022-09-07T17:06:02.788Z,11.32
2022-09-07T17:08:29.412Z,10.05
2022-09-07T17:11:03.595Z,10.82
2022-09-07T17:13:34.029Z,9.98
2022-09-07T17:16:04.376Z,9.90
2022-09-07T17:21:17.988Z,10.45
2022-09-07T17:23:53.948Z,10.52
2022-09-07T17:26:22.435Z,11.15
2022-09-07T17:28:49.992Z,10.38
2022-09-07T17:34:11.728Z,10.75
2022-09-07T17:36:38.289Z,10.35
2022-09-07T17:39:20.364Z,9.63
2022-09-07T17:41:47.983Z,9.63
2022-09-07T17:44:14.615Z,10.52
2022-09-07T17:46:41.193Z,10.85
2022-09-07T17:49:13.999Z,11.23
2022-09-07T17:51:40.780Z,10.90
2022-09-07T17:54:11.562Z,10.82
2022-09-07T17:56:38.848Z,9.88
2022-09-07T18:01:54.155Z,10.77
2022-09-07T18:04:21.291Z,10.30
2022-09-07T18:06:47.924Z,10.90
2022-09-07T18:09:14.552Z,10.85
2022-09-07T18:11:47.333Z,10.57
2022-09-07T18:14:15.298Z,10.73
2022-09-07T18:16:42.090Z,10.55
2022-09-07T18:19:08.826Z,10.48
2022-09-07T18:21:36.308Z,10.57
2022-09-07T18:24:07.653Z,9.63
2022-09-07T18:26:38.365Z,10.93
2022-09-07T18:29:10.422Z,11.27
2022-09-07T18:31:45.864Z,10.73
2022-09-07T18:34:12.513Z,11.57
2022-09-07T18:36:40.792Z,10.68
2022-09-07T18:39:07.469Z,11.20
2022-09-07T18:41:34.819Z,11.12
2022-09-07T18:44:01.647Z,10.73
2022-09-07T18:46:28.394Z,10.88
2022-09-07T18:48:55.235Z,9.85
2022-09-07T18:51:21.971Z,10.82
2022-09-07T18:53:48.515Z,11.25
2022-09-07T18:56:17.312Z,11.05
2022-09-07T18:58:45.519Z,10.45
2022-09-07T19:01:13.997Z,11.75
2022-09-07T19:03:41.101Z,10.90
2022-09-07T19:06:09.375Z,10.65
2022-09-07T19:08:37.167Z,10.88
2022-09-07T19:11:11.308Z,11.57
2022-09-07T19:13:38.058Z,10.85
2022-09-07T19:16:05.472Z,11.75
2022-09-07T19:18:32.307Z,11.18
2022-09-07T19:21:19.730Z,10.70
2022-09-07T19:24:02.695Z,11.25
2022-09-07T19:26:31.046Z,11.27
2022-09-07T19:28:58.664Z,12.18
2022-09-07T19:31:26.136Z,11.27
2022-09-07T19:33:59.348Z,11.55
2022-09-07T19:36:26.768Z,11.60
2022-09-07T19:38:53.353Z,11.68
2022-09-07T19:41:19.932Z,12.60
2022-09-07T19:43:46.619Z,12.13
2022-09-07T19:46:13.791Z,11.98
2022-09-07T19:48:40.385Z,11.80
2022-09-07T19:51:08.613Z,11.23
2022-09-07T19:53:37.274Z,11.30
2022-09-07T19:56:08.332Z,11.80
2022-09-07T19:58:35.704Z,12.13
2022-09-07T20:01:11.286Z,12.40
2022-09-07T20:06:08.919Z,11.60
2022-09-07T20:08:36.198Z,11.30
2022-09-07T20:11:03.567Z,12.23
2022-09-07T20:13:30.616Z,12.25
2022-09-07T20:15:58.001Z,12.00
2022-09-07T20:18:27.916Z,11.35
2022-09-07T20:20:54.887Z,11.85
2022-09-07T20:23:21.743Z,10.65
2022-09-07T20:26:20.868Z,12.95
2022-09-07T20:28:58.279Z,11.43
2022-09-07T20:31:37.331Z,11.88
2022-09-07T20:34:03.939Z,10.95
2022-09-07T20:36:30.477Z,10.80
2022-09-07T20:38:57.116Z,10.90
2022-09-07T20:41:31.395Z,11.45
2022-09-07T20:43:59.267Z,11.70
2022-09-07T20:46:26.037Z,11.30
2022-09-07T20:48:52.603Z,13.43
2022-09-07T20:51:21.091Z,12.02
2022-09-07T20:53:48.406Z,11.12
2022-09-07T20:56:22.408Z,11.05
2022-09-07T20:58:49.469Z,11.50
2022-09-07T21:01:18.079Z,10.80
2022-09-07T21:03:49.667Z,11.25
2022-09-07T21:06:16.364Z,10.93
2022-09-07T21:08:43.432Z,11.10
2022-09-07T21:11:11.719Z,10.95
2022-09-07T21:13:38.529Z,11.45
2022-09-07T21:16:11.117Z,10.10
2022-09-07T21:18:37.717Z,9.90
2022-09-07T21:21:19.408Z,10.95
2022-09-07T21:23:47.058Z,10.23
2022-09-07T21:26:13.623Z,10.95
2022-09-07T21:28:40.173Z,10.85
2022-09-07T21:31:07.514Z,10.50
2022-09-07T21:33:35.416Z,11.82
2022-09-07T21:36:05.374Z,10.90
2022-09-07T21:38:31.987Z,11.20
2022-09-07T21:40:58.744Z,10.60
2022-09-07T21:43:25.316Z,11.00
2022-09-07T21:45:51.864Z,12.25
2022-09-07T21:48:18.407Z,11.27
2022-09-07T21:50:46.776Z,11.48
2022-09-07T21:53:13.354Z,11.15
2022-09-07T21:55:39.788Z,11.50
2022-09-07T21:58:06.167Z,11.85
2022-09-07T22:00:32.547Z,10.75
2022-09-07T22:02:59.257Z,11.57
2022-09-07T22:05:25.809Z,10.63
2022-09-07T22:07:52.443Z,10.75
2022-09-07T22:10:18.978Z,11.02
2022-09-07T22:12:45.535Z,11.45
2022-09-07T22:15:12.174Z,10.95
2022-09-07T22:17:41.324Z,11.32
2022-09-07T22:20:10.142Z,10.60
2022-09-07T22:22:36.716Z,10.77
2022-09-07T22:25:03.539Z,10.77
2022-09-07T22:27:30.127Z,10.95
2022-09-07T22:29:56.699Z,10.68
2022-09-07T22:32:23.304Z,11.05
2022-09-07T22:34:49.916Z,10.35
2022-09-07T22:37:16.709Z,10.77
2022-09-07T22:39:43.303Z,11.12
2022-09-07T22:42:09.854Z,10.32
2022-09-07T22:44:36.435Z,10.45
2022-09-07T22:47:02.984Z,10.55
2022-09-07T22:49:29.578Z,11.32
2022-09-07T22:51:56.188Z,10.55
2022-09-07T22:54:22.868Z,10.40
2022-09-07T22:56:49.467Z,11.02
2022-09-07T22:59:16.009Z,9.93
2022-09-07T23:01:42.736Z,10.77
2022-09-07T23:04:09.826Z,10.95
2022-09-07T23:06:38.035Z,11.30
2022-09-07T23:09:09.069Z,10.20
2022-09-07T23:11:35.619Z,10.82
2022-09-07T23:14:03.334Z,11.10
2022-09-07T23:16:30.119Z,10.63
2022-09-07T23:18:59.851Z,10.85
2022-09-07T23:21:27.274Z,11.40
2022-09-07T23:23:55.177Z,10.20
2022-09-07T23:26:22.247Z,11.10
2022-09-07T23:28:55.981Z,9.70
2022-09-07T23:31:22.797Z,10.35
2022-09-07T23:33:49.567Z,10.65
2022-09-07T23:36:16.877Z,11.30
2022-09-07T23:38:43.899Z,10.60
2022-09-07T23:41:10.497Z,10.52
2022-09-07T23:43:37.039Z,10.20
2022-09-07T23:46:03.619Z,10.98
2022-09-07T23:48:30.186Z,10.40
2022-09-07T23:50:56.849Z,10.65
2022-09-07T23:53:23.509Z,10.73
2022-09-07T23:55:50.829Z,10.38
2022-09-07T23:58:17.910Z,10.75
